Time;durP1;ratioP1;P1;durP2;ratioP2;P2;SDS_P1;SDS_P2;PMS_P1;PMS_P2;Temp;Humidity;BMP_temperature;BMP_pressure;BME280_temperature;BME280_humidity;BME280_pressure;Samples;Min_cycle;Max_cycle;Signal;HPM_P1;HPM_P2
2023/03/29 00:01:16;;;;;;;6.38;2.95;;;5.90;99.90;;;;;;5048507;28;20380;-61
2023/03/29 00:03:44;;;;;;;6.63;3.15;;;5.90;99.90;;;;;;5048073;28;20044;-62
2023/03/29 00:06:13;;;;;;;5.70;2.85;;;5.90;99.90;;;;;;5046096;28;20041;-62
2023/03/29 00:08:40;;;;;;;5.88;3.08;;;5.90;99.90;;;;;;5044973;28;20485;-63
2023/03/29 00:11:06;;;;;;;6.30;2.90;;;5.90;99.90;;;;;;5045539;28;20107;-62
2023/03/29 00:13:32;;;;;;;6.22;3.25;;;5.90;99.90;;;;;;5048366;28;20119;-63
2023/03/29 00:15:58;;;;;;;7.70;3.10;;;5.90;99.90;;;;;;5047090;28;20179;-62
2023/03/29 00:18:23;;;;;;;7.47;3.70;;;5.80;99.90;;;;;;5043998;28;20041;-63
2023/03/29 00:20:57;;;;;;;6.32;2.85;;;5.90;99.90;;;;;;5049961;28;20079;-63
2023/03/29 00:23:24;;;;;;;7.93;3.10;;;5.90;99.90;;;;;;5047821;28;20065;-61
2023/03/29 00:25:51;;;;;;;6.65;3.10;;;5.90;99.90;;;;;;5045335;28;20041;-63
2023/03/29 00:28:17;;;;;;;7.57;3.47;;;5.90;99.90;;;;;;5040789;28;20043;-65
2023/03/29 00:30:44;;;;;;;7.00;3.38;;;5.90;99.90;;;;;;5048934;28;20028;-67
2023/03/29 00:33:10;;;;;;;8.02;4.07;;;5.80;99.90;;;;;;5048825;28;20073;-62
2023/03/29 00:35:38;;;;;;;6.95;3.28;;;5.80;99.90;;;;;;5046809;28;20063;-63
2023/03/29 00:38:05;;;;;;;6.43;3.67;;;5.80;99.90;;;;;;5046072;28;20033;-64
2023/03/29 00:40:39;;;;;;;5.40;3.33;;;5.80;99.90;;;;;;5048525;28;20040;-63
2023/03/29 00:43:11;;;;;;;6.95;3.42;;;5.80;99.90;;;;;;5050230;28;20048;-68
2023/03/29 00:45:36;;;;;;;6.93;3.53;;;5.80;99.90;;;;;;5048246;28;20033;-62
2023/03/29 00:48:07;;;;;;;7.65;3.33;;;5.80;99.90;;;;;;5050436;28;20449;-63
2023/03/29 00:50:39;;;;;;;7.13;3.72;;;5.80;99.90;;;;;;5045899;28;20521;-63
2023/03/29 00:53:13;;;;;;;;;;;5.80;99.90;;;;;;5038423;28;20115;-63
2023/03/29 00:55:56;;;;;;;5.85;3.17;;;5.80;99.90;;;;;;5043906;28;20271;-62
2023/03/29 00:58:44;;;;;;;8.38;3.55;;;5.80;99.90;;;;;;5051462;28;20041;-64
2023/03/29 01:01:18;;;;;;;10.75;3.58;;;5.80;99.90;;;;;;5051992;28;20143;-67
2023/03/29 01:03:52;;;;;;;7.72;4.00;;;5.80;99.90;;;;;;5050120;28;20045;-63
2023/03/29 01:06:22;;;;;;;7.15;3.80;;;5.80;99.90;;;;;;5049562;28;20048;-66
2023/03/29 01:08:56;;;;;;;8.23;4.03;;;5.80;99.90;;;;;;5047141;28;20123;-65
2023/03/29 01:11:33;;;;;;;6.93;3.80;;;5.80;99.90;;;;;;5049710;28;20053;-67
2023/03/29 01:14:05;;;;;;;10.05;4.20;;;5.80;99.90;;;;;;5049934;28;20044;-63
2023/03/29 01:16:33;;;;;;;8.57;4.15;;;5.80;99.90;;;;;;5049317;28;20032;-63
2023/03/29 01:19:01;;;;;;;9.48;4.28;;;5.80;99.90;;;;;;5052076;28;20494;-63
2023/03/29 01:21:41;;;;;;;6.43;3.97;;;5.80;99.90;;;;;;5049936;28;20670;-62
2023/03/29 01:24:16;;;;;;;6.78;3.95;;;5.80;99.90;;;;;;5051703;28;20041;-65
2023/03/29 01:27:06;;;;;;;8.40;4.55;;;5.80;99.90;;;;;;5042719;28;20119;-66
2023/03/29 01:29:39;;;;;;;7.07;4.22;;;5.80;99.90;;;;;;5055098;28;20403;-62
2023/03/29 01:32:13;;;;;;;8.02;3.85;;;5.80;99.90;;;;;;5049904;28;20076;-64
2023/03/29 01:34:50;;;;;;;6.80;3.63;;;5.80;99.90;;;;;;5042986;28;20051;-67
2023/03/29 01:37:35;;;;;;;6.30;4.03;;;5.80;99.90;;;;;;5046469;28;20593;-63
2023/03/29 01:40:01;;;;;;;7.28;3.53;;;5.80;99.90;;;;;;5047193;28;20041;-63
2023/03/29 01:42:40;;;;;;;8.13;4.10;;;5.80;99.90;;;;;;5050435;28;20441;-63
2023/03/29 01:45:09;;;;;;;7.50;4.32;;;5.90;99.90;;;;;;5046988;28;20126;-68
2023/03/29 01:47:34;;;;;;;11.80;3.95;;;5.70;99.90;;;;;;5049011;28;20584;-63
2023/03/29 01:50:25;;;;;;;9.55;4.20;;;5.80;99.90;;;;;;5047749;28;20084;-64
2023/03/29 01:53:03;;;;;;;7.53;4.38;;;5.90;99.90;;;;;;5048200;28;20044;-63
2023/03/29 01:55:35;;;;;;;9.65;4.10;;;5.90;99.90;;;;;;5042341;28;20488;-62
2023/03/29 01:58:02;;;;;;;;;;;5.90;99.90;;;;;;5048361;28;20829;-62
2023/03/29 02:00:28;;;;;;;8.52;4.28;;;5.90;99.90;;;;;;5046790;28;20417;-62
2023/03/29 02:02:59;;;;;;;6.72;3.97;;;5.80;99.90;;;;;;5043147;28;20048;-66
2023/03/29 02:05:27;;;;;;;7.68;4.10;;;5.80;99.90;;;;;;5040112;28;20049;-66
2023/03/29 02:07:53;;;;;;;7.70;4.32;;;5.80;99.90;;;;;;5049981;28;20123;-63
2023/03/29 02:10:20;;;;;;;9.75;3.83;;;5.80;99.90;;;;;;5045472;28;20032;-62
2023/03/29 02:12:46;;;;;;;11.32;4.45;;;5.90;99.90;;;;;;5046976;28;20056;-67
2023/03/29 02:15:18;;;;;;;7.32;4.22;;;5.90;99.90;;;;;;5051308;28;20048;-62
2023/03/29 02:17:48;;;;;;;9.37;4.33;;;5.90;99.90;;;;;;5047895;28;20029;-63
2023/03/29 02:20:30;;;;;;;8.70;4.43;;;5.90;99.90;;;;;;5050884;28;20287;-62
2023/03/29 02:23:47;;;;;;;8.90;5.03;;;5.90;99.90;;;;;;5049431;28;20094;-63
2023/03/29 02:26:13;;;;;;;9.15;4.45;;;5.90;99.90;;;;;;5034533;28;20413;-63
2023/03/29 02:28:40;;;;;;;9.00;4.70;;;5.90;99.90;;;;;;5049564;28;20036;-63
2023/03/29 02:31:30;;;;;;;8.30;4.55;;;5.90;99.90;;;;;;5050111;28;20672;-62
2023/03/29 02:34:06;;;;;;;10.20;4.80;;;5.90;99.90;;;;;;5043691;28;20487;-63
2023/03/29 02:36:39;;;;;;;10.48;4.68;;;5.90;99.90;;;;;;5036891;28;20052;-63
2023/03/29 02:39:07;;;;;;;8.52;4.57;;;5.90;99.90;;;;;;5044750;28;20520;-64
2023/03/29 02:41:33;;;;;;;9.77;4.97;;;5.90;99.90;;;;;;5045526;28;20502;-65
2023/03/29 02:44:00;;;;;;;8.43;4.82;;;5.90;99.90;;;;;;5043989;28;20086;-66
2023/03/29 02:46:26;;;;;;;8.43;4.70;;;6.00;99.90;;;;;;5049806;28;20037;-63
2023/03/29 02:48:53;;;;;;;9.32;5.05;;;6.00;99.90;;;;;;5036933;28;20576;-62
2023/03/29 02:51:32;;;;;;;9.73;5.38;;;6.00;99.90;;;;;;5042214;28;20049;-65
2023/03/29 02:54:04;;;;;;;9.07;5.18;;;6.00;99.90;;;;;;5036159;28;20041;-65
2023/03/29 02:56:29;;;;;;;11.30;5.03;;;5.90;99.90;;;;;;5038598;28;20045;-65
2023/03/29 02:58:55;;;;;;;10.30;5.20;;;5.90;99.90;;;;;;5047763;28;20028;-68
2023/03/29 03:01:21;;;;;;;8.18;4.97;;;5.90;99.90;;;;;;5045774;28;20421;-63
2023/03/29 03:03:49;;;;;;;14.45;5.97;;;6.00;99.90;;;;;;5050067;28;20244;-63
2023/03/29 03:06:15;;;;;;;10.32;5.40;;;6.00;99.90;;;;;;5038249;28;20398;-63
2023/03/29 03:08:41;;;;;;;11.30;5.90;;;6.00;99.90;;;;;;5041802;28;20064;-62
2023/03/29 03:11:07;;;;;;;12.82;5.80;;;5.90;99.90;;;;;;5046302;28;20037;-63
2023/03/29 03:13:33;;;;;;;11.40;5.32;;;6.00;99.90;;;;;;5047244;28;20033;-65
2023/03/29 03:15:59;;;;;;;10.88;6.00;;;6.00;99.90;;;;;;5048143;28;20041;-64
2023/03/29 03:18:26;;;;;;;11.93;6.00;;;6.00;99.90;;;;;;5047157;28;20106;-65
2023/03/29 03:20:56;;;;;;;10.30;5.53;;;6.00;99.90;;;;;;5039777;28;20055;-64
2023/03/29 03:23:22;;;;;;;12.88;5.78;;;6.00;99.90;;;;;;5048670;28;20048;-62
2023/03/29 03:25:48;;;;;;;11.63;5.97;;;6.00;99.90;;;;;;5048823;28;20029;-64
2023/03/29 03:28:14;;;;;;;11.15;6.55;;;6.00;99.90;;;;;;5047139;28;20411;-61
2023/03/29 03:30:39;;;;;;;8.52;5.30;;;6.00;99.90;;;;;;5050129;28;20116;-66
2023/03/29 03:33:07;;;;;;;10.00;5.90;;;6.00;99.90;;;;;;5038723;28;20049;-65
2023/03/29 03:35:33;;;;;;;10.68;5.85;;;6.00;99.90;;;;;;5044078;28;20487;-65
2023/03/29 03:37:59;;;;;;;11.07;5.75;;;6.00;99.90;;;;;;5046022;28;20051;-65
2023/03/29 03:40:24;;;;;;;11.02;5.95;;;6.00;99.90;;;;;;5047664;28;20037;-64
2023/03/29 03:42:50;;;;;;;12.88;6.07;;;6.00;99.90;;;;;;5043348;28;20376;-63
2023/03/29 03:45:16;;;;;;;13.48;6.63;;;6.00;99.90;;;;;;5046786;28;20509;-66
2023/03/29 03:47:41;;;;;;;12.35;6.35;;;6.00;99.90;;;;;;5046842;28;20499;-65
2023/03/29 03:50:07;;;;;;;10.32;6.13;;;6.00;99.90;;;;;;5048350;28;20484;-62
2023/03/29 03:52:33;;;;;;;10.63;6.28;;;6.00;99.90;;;;;;5046223;28;20033;-63
2023/03/29 03:55:01;;;;;;;9.82;6.00;;;6.00;99.90;;;;;;5047161;28;20033;-64
2023/03/29 03:57:27;;;;;;;11.18;6.18;;;6.00;99.90;;;;;;5046875;28;20049;-64
2023/03/29 03:59:53;;;;;;;12.70;6.45;;;6.10;99.90;;;;;;5043017;28;20041;-63
2023/03/29 04:02:19;;;;;;;11.48;6.20;;;6.10;99.90;;;;;;5045990;28;20115;-62
2023/03/29 04:04:45;;;;;;;11.65;6.07;;;6.10;99.90;;;;;;5048001;28;20037;-62
2023/03/29 04:07:13;;;;;;;11.82;7.00;;;6.00;99.90;;;;;;5047625;28;20051;-68
2023/03/29 04:09:38;;;;;;;10.63;6.32;;;6.00;99.90;;;;;;5040379;28;20040;-62
2023/03/29 04:12:04;;;;;;;12.48;6.50;;;6.00;99.90;;;;;;5044183;28;20029;-62
2023/03/29 04:14:31;;;;;;;11.93;6.03;;;6.00;99.90;;;;;;5043764;28;20045;-63
2023/03/29 04:16:56;;;;;;;9.10;5.95;;;6.10;99.90;;;;;;5046668;28;20037;-62
2023/03/29 04:19:22;;;;;;;10.50;5.80;;;6.10;99.90;;;;;;5049454;28;20093;-62
2023/03/29 04:21:48;;;;;;;14.80;6.55;;;6.10;99.90;;;;;;5033219;28;20499;-67
2023/03/29 04:24:16;;;;;;;12.18;6.35;;;6.10;99.90;;;;;;5047415;28;20392;-67
2023/03/29 04:26:41;;;;;;;12.63;6.07;;;6.10;99.90;;;;;;5044939;28;20091;-61
2023/03/29 04:29:07;;;;;;;12.65;6.07;;;6.10;99.90;;;;;;5050665;28;20029;-62
2023/03/29 04:31:33;;;;;;;11.77;5.88;;;6.10;99.90;;;;;;5049111;28;20033;-62
2023/03/29 04:33:59;;;;;;;13.43;6.10;;;6.10;99.90;;;;;;5050234;28;20449;-63
2023/03/29 04:36:24;;;;;;;10.43;6.10;;;6.10;99.90;;;;;;5050460;28;20052;-66
2023/03/29 04:38:53;;;;;;;11.63;6.00;;;6.10;99.90;;;;;;5043367;28;20072;-67
2023/03/29 04:41:19;;;;;;;11.73;5.63;;;6.20;99.90;;;;;;5050910;28;20045;-62
2023/03/29 04:43:45;;;;;;;11.45;6.20;;;6.10;99.90;;;;;;5044749;28;20044;-62
2023/03/29 04:46:12;;;;;;;14.65;7.18;;;6.10;99.90;;;;;;5042905;28;20425;-63
2023/03/29 04:48:38;;;;;;;11.10;6.25;;;6.10;99.90;;;;;;5049521;28;20040;-62
2023/03/29 04:51:03;;;;;;;12.20;6.35;;;6.10;99.90;;;;;;5050926;28;20037;-62
2023/03/29 04:53:29;;;;;;;12.80;6.20;;;6.10;99.90;;;;;;5052127;28;20083;-62
2023/03/29 04:55:56;;;;;;;13.13;6.00;;;6.10;99.90;;;;;;5050579;28;20029;-64
2023/03/29 04:58:22;;;;;;;12.68;6.43;;;6.10;99.90;;;;;;5050138;28;20049;-62
2023/03/29 05:00:48;;;;;;;12.73;6.80;;;6.10;99.90;;;;;;5050153;28;20402;-66
2023/03/29 05:03:14;;;;;;;10.35;6.25;;;6.00;99.90;;;;;;5045834;28;20041;-61
2023/03/29 05:05:40;;;;;;;11.93;6.60;;;6.00;99.90;;;;;;5051509;28;20079;-62
2023/03/29 05:08:08;;;;;;;11.40;6.65;;;6.00;99.90;;;;;;5044542;28;20483;-61
2023/03/29 05:10:34;;;;;;;14.30;7.00;;;6.00;99.90;;;;;;5043239;28;20072;-62
2023/03/29 05:13:00;;;;;;;13.48;6.90;;;6.00;99.90;;;;;;5050808;28;20045;-63
2023/03/29 05:15:25;;;;;;;10.82;6.72;;;6.00;99.90;;;;;;5049820;28;20529;-63
2023/03/29 05:17:52;;;;;;;13.05;6.70;;;6.00;99.90;;;;;;5051484;28;20049;-65
2023/03/29 05:20:17;;;;;;;10.23;6.75;;;6.00;99.90;;;;;;5050763;28;20037;-67
2023/03/29 05:22:43;;;;;;;13.07;6.88;;;6.00;99.90;;;;;;5049695;28;20483;-65
2023/03/29 05:25:10;;;;;;;15.45;7.55;;;6.00;99.90;;;;;;5041767;28;20034;-68
2023/03/29 05:27:36;;;;;;;13.63;7.57;;;6.00;99.90;;;;;;5037756;28;20037;-63
2023/03/29 05:30:02;;;;;;;13.25;7.60;;;6.00;99.90;;;;;;5050024;28;20127;-65
2023/03/29 05:32:28;;;;;;;12.70;7.28;;;6.00;99.90;;;;;;5049345;28;20049;-64
2023/03/29 05:34:54;;;;;;;11.88;6.82;;;6.00;99.90;;;;;;5023236;28;20085;-63
2023/03/29 05:37:19;;;;;;;11.68;7.07;;;6.00;99.90;;;;;;5044728;28;20072;-67
2023/03/29 05:39:45;;;;;;;11.70;7.05;;;6.00;99.90;;;;;;5049714;28;20037;-62
2023/03/29 05:42:12;;;;;;;12.30;7.20;;;6.00;99.90;;;;;;5050106;28;20400;-62
2023/03/29 05:44:38;;;;;;;12.18;7.13;;;6.00;99.90;;;;;;5050395;28;20045;-67
2023/03/29 05:47:05;;;;;;;11.32;7.13;;;6.10;99.90;;;;;;5047106;28;20036;-64
2023/03/29 05:49:31;;;;;;;12.68;7.30;;;6.10;99.90;;;;;;5050080;28;20125;-63
2023/03/29 05:51:57;;;;;;;12.70;7.35;;;6.10;99.90;;;;;;5050702;28;20447;-62
2023/03/29 05:54:24;;;;;;;11.63;7.00;;;6.10;99.90;;;;;;5051326;28;20041;-63
2023/03/29 05:56:50;;;;;;;14.80;7.70;;;6.10;99.90;;;;;;5049591;28;20083;-62
2023/03/29 05:59:16;;;;;;;13.32;7.38;;;6.10;99.90;;;;;;5051044;28;20072;-63
2023/03/29 06:01:45;;;;;;;14.98;7.30;;;6.10;99.90;;;;;;5045328;28;20084;-62
2023/03/29 06:04:12;;;;;;;14.15;7.45;;;6.10;99.90;;;;;;5049328;28;20538;-63
2023/03/29 06:06:37;;;;;;;12.15;7.70;;;6.10;99.90;;;;;;5036243;28;20037;-62
2023/03/29 06:09:04;;;;;;;15.07;7.45;;;6.20;99.90;;;;;;5036766;28;20038;-62
2023/03/29 06:11:30;;;;;;;13.50;8.18;;;6.10;99.90;;;;;;5049915;28;20045;-62
2023/03/29 06:13:56;;;;;;;14.48;7.95;;;6.20;99.90;;;;;;5046673;28;20438;-63
2023/03/29 06:16:22;;;;;;;11.88;7.13;;;6.20;99.90;;;;;;5046052;28;20471;-62
2023/03/29 06:18:47;;;;;;;12.45;7.35;;;6.20;99.90;;;;;;5039804;28;20044;-63
2023/03/29 06:21:13;;;;;;;12.90;7.22;;;6.20;99.90;;;;;;5047126;28;20094;-64
2023/03/29 06:23:39;;;;;;;10.75;7.55;;;6.20;99.90;;;;;;5046963;28;20069;-61
2023/03/29 06:26:04;;;;;;;14.25;8.02;;;6.30;99.90;;;;;;5050032;28;20219;-61
2023/03/29 06:28:30;;;;;;;12.77;7.50;;;6.30;99.90;;;;;;5042489;28;20033;-63
2023/03/29 06:31:00;;;;;;;15.18;7.57;;;6.30;99.90;;;;;;5041596;28;20052;-62
2023/03/29 06:33:29;;;;;;;14.80;8.25;;;6.30;99.90;;;;;;5035556;28;20037;-63
2023/03/29 06:35:55;;;;;;;16.75;7.82;;;6.40;99.90;;;;;;5035365;28;20404;-63
2023/03/29 06:38:21;;;;;;;15.15;7.20;;;6.40;99.90;;;;;;5048298;28;20033;-63
2023/03/29 06:40:47;;;;;;;13.02;7.75;;;6.40;99.90;;;;;;5050745;28;20108;-64
2023/03/29 06:43:13;;;;;;;11.70;7.00;;;6.40;99.90;;;;;;5048936;28;20482;-64
2023/03/29 06:45:39;;;;;;;12.80;7.10;;;6.50;99.90;;;;;;5046729;28;20037;-63
2023/03/29 06:48:06;;;;;;;14.20;7.20;;;6.50;99.90;;;;;;5050385;28;20048;-63
2023/03/29 06:50:33;;;;;;;15.23;7.53;;;6.50;99.90;;;;;;5047647;28;20525;-66
2023/03/29 06:52:59;;;;;;;10.52;7.05;;;6.50;99.90;;;;;;5049095;28;20080;-69
2023/03/29 06:55:25;;;;;;;13.95;7.63;;;6.50;99.90;;;;;;5047643;28;20504;-63
2023/03/29 06:57:52;;;;;;;11.95;7.03;;;6.60;99.90;;;;;;5039380;28;20106;-63
2023/03/29 07:00:26;;;;;;;11.95;7.03;;;6.60;99.90;;;;;;5036189;28;20059;-64
2023/03/29 07:02:57;;;;;;;12.20;7.68;;;6.60;99.90;;;;;;5039762;28;20419;-67
2023/03/29 07:05:26;;;;;;;12.20;7.03;;;6.60;99.90;;;;;;5043945;28;20033;-64
2023/03/29 07:07:54;;;;;;;11.93;7.18;;;6.60;99.90;;;;;;5048784;28;20407;-63
2023/03/29 07:10:34;;;;;;;11.63;7.18;;;6.70;99.90;;;;;;5044222;28;20479;-63
2023/03/29 07:13:00;;;;;;;12.48;7.15;;;6.70;99.90;;;;;;5047496;28;20051;-63
2023/03/29 07:15:27;;;;;;;13.75;7.18;;;6.70;99.90;;;;;;5042677;28;20507;-63
2023/03/29 07:17:52;;;;;;;10.13;6.80;;;6.70;99.90;;;;;;5048867;28;20052;-66
2023/03/29 07:20:20;;;;;;;13.52;6.85;;;6.70;99.90;;;;;;5041759;28;20143;-63
2023/03/29 07:22:47;;;;;;;12.77;6.80;;;6.80;99.90;;;;;;5044146;28;20099;-63
2023/03/29 07:25:14;;;;;;;11.85;7.00;;;6.80;99.90;;;;;;5048223;28;20048;-63
2023/03/29 07:27:41;;;;;;;11.43;6.53;;;6.90;99.90;;;;;;5046783;28;20131;-63
2023/03/29 07:30:09;;;;;;;12.60;6.80;;;6.90;99.90;;;;;;5045348;28;20064;-66
2023/03/29 07:32:40;;;;;;;10.45;6.97;;;6.90;99.90;;;;;;5046249;28;20056;-64
2023/03/29 07:35:07;;;;;;;13.85;6.97;;;6.90;99.90;;;;;;5048737;28;20094;-66
2023/03/29 07:37:34;;;;;;;12.75;7.03;;;6.90;99.90;;;;;;5041972;28;20037;-63
2023/03/29 07:40:02;;;;;;;10.23;6.72;;;7.00;99.90;;;;;;5042802;28;20051;-65
2023/03/29 07:42:28;;;;;;;12.80;6.90;;;7.00;99.90;;;;;;5048114;28;20037;-63
2023/03/29 07:44:54;;;;;;;11.20;7.05;;;7.10;99.90;;;;;;5045853;28;20082;-64
2023/03/29 07:47:20;;;;;;;13.35;7.30;;;7.10;99.90;;;;;;5043515;28;20136;-64
2023/03/29 07:49:45;;;;;;;12.82;6.88;;;7.10;99.90;;;;;;5045647;28;20036;-65
2023/03/29 07:52:11;;;;;;;12.77;6.57;;;7.20;99.90;;;;;;5042522;28;20036;-64
2023/03/29 07:54:37;;;;;;;14.90;6.68;;;7.20;99.90;;;;;;5040311;28;20064;-64
2023/03/29 07:57:03;;;;;;;14.00;7.43;;;7.20;99.90;;;;;;5047005;28;20041;-64
2023/03/29 07:59:29;;;;;;;13.18;6.53;;;7.20;99.90;;;;;;5047971;28;20087;-63
2023/03/29 08:01:55;;;;;;;11.93;7.00;;;7.30;99.90;;;;;;5045060;28;20502;-63
2023/03/29 08:04:21;;;;;;;11.07;6.45;;;7.30;99.90;;;;;;5040318;28;20072;-66
2023/03/29 08:06:47;;;;;;;11.50;6.90;;;7.30;99.90;;;;;;5045756;28;20103;-63
2023/03/29 08:09:13;;;;;;;11.43;6.43;;;7.40;99.90;;;;;;5041498;28;20045;-64
2023/03/29 08:11:39;;;;;;;12.82;6.40;;;7.40;99.90;;;;;;5042154;28;20093;-63
2023/03/29 08:14:05;;;;;;;13.68;6.45;;;7.50;99.90;;;;;;5046223;28;20048;-65
2023/03/29 08:16:34;;;;;;;10.38;6.57;;;7.50;99.90;;;;;;5046369;28;20431;-63
2023/03/29 08:18:59;;;;;;;12.93;6.47;;;7.60;99.90;;;;;;5047766;28;20041;-64
2023/03/29 08:21:25;;;;;;;10.00;5.78;;;7.60;99.90;;;;;;5046874;28;20399;-63
2023/03/29 08:23:51;;;;;;;12.13;6.72;;;7.60;99.90;;;;;;5044445;28;20084;-63
2023/03/29 08:26:17;;;;;;;11.65;6.72;;;7.60;99.90;;;;;;5039864;28;20485;-64
2023/03/29 08:28:43;;;;;;;10.48;6.10;;;7.70;99.90;;;;;;5048674;28;20033;-68
2023/03/29 08:31:09;;;;;;;12.75;6.53;;;7.70;99.90;;;;;;5045686;28;20545;-64
2023/03/29 08:33:35;;;;;;;10.05;6.53;;;7.80;99.90;;;;;;5047510;28;20037;-67
2023/03/29 08:36:02;;;;;;;12.60;6.50;;;7.80;99.90;;;;;;5044295;28;20048;-64
2023/03/29 08:38:28;;;;;;;11.75;6.30;;;7.90;99.90;;;;;;5045688;28;20035;-63
2023/03/29 08:40:53;;;;;;;9.80;6.22;;;7.90;99.90;;;;;;5043679;28;20033;-63
2023/03/29 08:43:42;;;;;;;10.73;6.63;;;8.00;99.90;;;;;;5036533;28;20466;-67
2023/03/29 08:46:17;;;;;;;11.90;6.13;;;8.00;99.90;;;;;;5045260;28;20491;-64
2023/03/29 08:48:57;;;;;;;11.55;6.78;;;8.10;99.90;;;;;;5042022;28;20284;-64
2023/03/29 08:51:31;;;;;;;11.82;5.85;;;8.10;99.90;;;;;;5046890;28;20112;-65
2023/03/29 08:54:14;;;;;;;11.43;7.00;;;8.20;99.90;;;;;;5043576;28;20041;-64
2023/03/29 08:56:44;;;;;;;14.57;5.97;;;8.20;99.90;;;;;;5040695;28;20033;-64
2023/03/29 08:59:27;;;;;;;12.20;6.20;;;8.20;99.90;;;;;;5043878;28;20037;-64
2023/03/29 09:01:55;;;;;;;10.30;6.95;;;8.30;99.90;;;;;;5049347;28;20045;-64
2023/03/29 09:04:30;;;;;;;11.15;6.55;;;8.30;99.90;;;;;;5052338;28;20038;-65
2023/03/29 09:06:56;;;;;;;13.88;6.50;;;8.40;99.90;;;;;;5049116;28;20171;-64
2023/03/29 09:09:32;;;;;;;11.23;6.70;;;8.40;99.90;;;;;;5051081;28;20080;-65
2023/03/29 09:12:30;;;;;;;11.38;6.22;;;8.50;99.90;;;;;;5052578;28;20141;-66
2023/03/29 09:15:18;;;;;;;14.88;6.57;;;8.50;99.90;;;;;;5082263;22;20420;-75
2023/03/29 09:17:49;;;;;;;12.75;7.15;;;8.50;99.90;;;;;;5066963;28;20044;-75
2023/03/29 09:20:47;;;;;;;11.87;6.60;;;8.50;99.90;;;;;;5071414;28;20045;-75
2023/03/29 09:23:43;;;;;;;14.00;6.95;;;8.60;99.90;;;;;;5067329;28;20303;-75
2023/03/29 09:26:40;;;;;;;11.77;6.70;;;8.70;99.90;;;;;;5054820;28;20123;-75
2023/03/29 09:29:30;;;;;;;13.07;6.78;;;8.80;99.90;;;;;;5072165;28;20082;-75
2023/03/29 09:31:55;;;;;;;13.18;6.93;;;8.80;99.90;;;;;;5071629;28;20412;-76
2023/03/29 09:34:29;;;;;;;14.27;6.53;;;8.90;99.90;;;;;;5074917;28;20040;-75
2023/03/29 09:37:20;;;;;;;12.73;6.68;;;8.90;99.90;;;;;;5070670;28;20052;-75
2023/03/29 09:39:46;;;;;;;13.93;7.45;;;9.00;99.90;;;;;;5063425;28;20044;-75
2023/03/29 09:42:13;;;;;;;15.52;8.88;;;9.10;99.90;;;;;;5071686;28;20054;-75
2023/03/29 09:44:56;;;;;;;13.90;7.47;;;9.20;99.90;;;;;;5071708;28;20430;-75
2023/03/29 09:47:53;;;;;;;15.40;7.75;;;9.30;99.90;;;;;;5068135;28;20036;-75
2023/03/29 09:50:25;;;;;;;14.27;7.50;;;9.30;99.90;;;;;;5087781;28;20053;-75
2023/03/29 09:52:51;;;;;;;16.13;8.15;;;9.40;99.90;;;;;;5071465;28;20094;-76
2023/03/29 09:55:27;;;;;;;11.60;7.78;;;9.40;99.90;;;;;;5071285;28;20072;-75
2023/03/29 09:57:52;;;;;;;15.00;8.02;;;9.50;99.90;;;;;;5071070;28;20044;-75
2023/03/29 10:00:19;;;;;;;12.75;7.80;;;9.50;99.90;;;;;;5069779;28;20051;-76
2023/03/29 10:02:53;;;;;;;14.05;7.53;;;9.50;99.90;;;;;;5073634;28;20063;-75
2023/03/29 10:05:19;;;;;;;14.20;8.00;;;9.60;99.90;;;;;;5071430;28;20078;-75
2023/03/29 10:07:50;;;;;;;14.40;8.02;;;9.60;99.90;;;;;;5072508;28;20064;-76
2023/03/29 10:10:32;;;;;;;12.68;7.55;;;9.60;99.90;;;;;;5071349;28;20033;-75
2023/03/29 10:13:04;;;;;;;12.80;8.10;;;9.70;99.90;;;;;;5071396;28;22313;-76
2023/03/29 10:15:30;;;;;;;13.40;7.95;;;9.70;99.90;;;;;;5052115;28;20040;-75
2023/03/29 10:18:09;;;;;;;16.13;8.07;;;9.80;99.90;;;;;;5071167;28;20554;-76
2023/03/29 10:20:37;;;;;;;14.85;8.18;;;9.80;99.90;;;;;;5071591;28;20082;-75
2023/03/29 10:23:06;;;;;;;12.02;7.63;;;10.00;99.90;;;;;;5070611;28;20045;-75
2023/03/29 10:25:40;;;;;;;14.05;7.43;;;10.10;99.90;;;;;;5070516;28;20036;-75
2023/03/29 10:28:17;;;;;;;12.90;8.02;;;10.20;99.90;;;;;;5069236;28;20049;-76
2023/03/29 10:30:47;;;;;;;11.80;7.72;;;10.40;99.90;;;;;;5071187;28;20119;-76
2023/03/29 10:33:19;;;;;;;13.00;7.72;;;10.50;99.90;;;;;;5070731;28;20048;-76
2023/03/29 10:35:46;;;;;;;12.23;8.23;;;10.70;99.90;;;;;;5070512;28;20040;-76
2023/03/29 10:38:16;;;;;;;11.63;7.47;;;10.80;99.90;;;;;;5052741;28;20047;-75
2023/03/29 10:40:50;;;;;;;14.02;7.20;;;10.90;99.90;;;;;;5070854;28;20036;-76
2023/03/29 10:43:16;;;;;;;10.88;7.18;;;11.10;99.90;;;;;;5070368;28;20401;-75
2023/03/29 10:45:42;;;;;;;11.07;7.07;;;11.10;99.90;;;;;;5070241;28;20040;-76
2023/03/29 10:48:12;;;;;;;15.48;7.80;;;11.20;99.90;;;;;;5074181;28;20580;-76
2023/03/29 10:50:38;;;;;;;16.45;7.72;;;11.30;99.90;;;;;;5070003;28;20090;-75
2023/03/29 10:53:29;;;;;;;12.40;7.75;;;11.30;99.90;;;;;;5069345;28;20045;-76
2023/03/29 10:56:28;;;;;;;11.27;7.22;;;11.40;99.90;;;;;;5065997;28;20051;-75
2023/03/29 10:59:38;;;;;;;11.27;7.30;;;11.40;99.90;;;;;;5067960;28;20120;-76
2023/03/29 11:02:13;;;;;;;13.02;7.40;;;11.40;99.90;;;;;;5067383;28;20055;-76
2023/03/29 11:05:35;;;;;;;9.80;6.57;;;11.50;99.90;;;;;;5067985;28;20044;-76
2023/03/29 11:08:11;;;;;;;10.93;7.10;;;11.60;99.90;;;;;;5058309;28;20055;-75
2023/03/29 11:10:59;;;;;;;15.07;7.78;;;11.60;99.90;;;;;;5069989;28;20043;-76
2023/03/29 11:13:33;;;;;;;11.18;7.68;;;11.70;99.90;;;;;;5062044;28;20514;-75
2023/03/29 11:16:49;;;;;;;12.30;7.68;;;11.80;99.90;;;;;;5069075;28;20040;-75
2023/03/29 11:19:35;;;;;;;15.15;7.88;;;11.80;99.90;;;;;;5027238;28;20069;-76
2023/03/29 11:22:12;;;;;;;11.25;6.82;;;11.90;99.90;;;;;;5064004;28;20077;-76
2023/03/29 11:24:47;;;;;;;12.57;7.35;;;11.90;99.90;;;;;;5068832;28;20079;-75
2023/03/29 11:27:28;;;;;;;15.13;8.73;;;12.00;99.90;;;;;;5052928;28;20067;-75
2023/03/29 11:30:13;;;;;;;15.95;7.43;;;12.10;99.90;;;;;;5069370;28;20040;-75
2023/03/29 11:33:00;;;;;;;11.52;7.07;;;12.10;99.90;;;;;;5063862;28;20044;-76
2023/03/29 11:35:49;;;;;;;11.75;8.35;;;12.20;99.90;;;;;;5065989;28;20080;-76
2023/03/29 11:38:38;;;;;;;12.70;7.43;;;12.20;99.90;;;;;;5074964;28;20105;-76
2023/03/29 11:41:12;;;;;;;15.32;7.80;;;12.20;99.90;;;;;;5069614;28;20044;-76
2023/03/29 11:43:57;;;;;;;13.73;7.70;;;12.20;99.90;;;;;;5064079;28;20094;-76
2023/03/29 11:46:30;;;;;;;13.00;7.65;;;12.20;99.90;;;;;;5052284;28;20036;-76
2023/03/29 11:49:04;;;;;;;12.60;7.35;;;12.20;99.90;;;;;;5059784;28;20366;-76
2023/03/29 11:51:36;;;;;;;10.60;7.10;;;12.30;99.90;;;;;;5065712;28;20083;-76
2023/03/29 11:54:16;;;;;;;10.52;6.90;;;12.30;99.90;;;;;;5063203;28;20063;-75
2023/03/29 11:56:58;;;;;;;10.93;7.05;;;12.40;99.90;;;;;;5061300;28;20134;-75
2023/03/29 11:59:33;;;;;;;;;;;12.40;99.90;;;;;;5061928;28;20048;-76
2023/03/29 12:02:14;;;;;;;13.90;8.18;;;12.40;99.90;;;;;;5064674;28;19920;-75
2023/03/29 12:04:49;;;;;;;14.90;7.93;;;12.40;99.90;;;;;;5063530;28;20082;-76
2023/03/29 12:07:34;;;;;;;14.18;7.97;;;12.40;99.90;;;;;;5051866;28;20043;-75
2023/03/29 12:10:20;;;;;;;13.20;7.82;;;12.50;99.90;;;;;;5053030;28;20694;-75
2023/03/29 12:13:02;;;;;;;13.88;8.68;;;12.60;99.90;;;;;;5056160;28;20051;-75
2023/03/29 12:15:37;;;;;;;12.93;8.73;;;12.60;99.90;;;;;;5064864;28;20064;-75
2023/03/29 12:18:03;;;;;;;15.63;8.10;;;12.70;99.90;;;;;;5063850;28;20045;-74
2023/03/29 12:20:33;;;;;;;12.45;8.25;;;12.70;99.90;;;;;;5063461;28;20032;-74
2023/03/29 12:22:59;;;;;;;15.95;8.07;;;12.70;99.90;;;;;;5060126;28;20086;-74
2023/03/29 12:25:52;;;;;;;13.68;8.35;;;12.80;99.90;;;;;;5060754;28;20037;-73
2023/03/29 12:28:39;;;;;;;;;;;12.80;99.90;;;;;;5060223;28;20048;-75
2023/03/29 12:31:17;;;;;;;14.32;8.82;;;12.90;99.90;;;;;;5060246;28;19943;-75
2023/03/29 12:34:09;;;;;;;14.18;8.93;;;12.90;99.90;;;;;;5057459;28;20747;-75
2023/03/29 12:36:47;;;;;;;11.93;7.47;;;13.00;99.90;;;;;;5036627;28;20056;-75
2023/03/29 12:39:16;;;;;;;13.35;8.65;;;13.10;99.90;;;;;;5064515;28;20496;-75
2023/03/29 12:41:47;;;;;;;14.32;8.95;;;13.10;99.90;;;;;;5058684;28;20512;-75
2023/03/29 12:44:16;;;;;;;14.50;8.90;;;13.10;99.90;;;;;;5077630;28;20048;-74
2023/03/29 12:46:42;;;;;;;13.05;8.60;;;13.10;99.90;;;;;;5064699;28;20111;-73
2023/03/29 12:49:38;;;;;;;15.63;8.70;;;13.10;99.90;;;;;;5058582;28;20051;-75
2023/03/29 12:52:21;;;;;;;12.13;8.75;;;13.10;99.90;;;;;;5047813;28;20103;-75
2023/03/29 12:54:56;;;;;;;15.18;9.18;;;13.10;99.90;;;;;;5046920;28;20993;-75
2023/03/29 12:57:26;;;;;;;17.23;8.75;;;13.10;99.90;;;;;;5062674;28;20036;-74
2023/03/29 12:59:52;;;;;;;15.88;8.98;;;13.20;99.90;;;;;;5066948;28;20044;-74
2023/03/29 13:02:17;;;;;;;13.75;8.32;;;13.10;99.90;;;;;;5067451;28;20048;-75
2023/03/29 13:04:49;;;;;;;12.80;8.55;;;13.20;99.90;;;;;;5065416;28;20051;-74
2023/03/29 13:07:29;;;;;;;12.75;8.52;;;13.20;99.90;;;;;;5063540;28;20139;-75
2023/03/29 13:09:57;;;;;;;17.52;9.25;;;13.20;99.90;;;;;;5066487;28;20056;-73